Main page
METAR-TAF:

METAR-TAF

Airports :

Kullu–Manali Airport

Kullu / Manali, India

latitude: 31-52-36N, longitude: 77-09-16E, elevation: 1089 m

METAR: missing

Time: 03:30 (22:00 UTC)

Forecast

The report was made 17 hours and 0 minutes ago, at 05:00 UTC
Forecast valid from 05 at 06 UTC to 05 at 15 UTC
Wind 2 kt from variable directions
Visibility: 5000 m
Few clouds at a height of 800 ft
Scattered clouds at a height of 3000 ft
mist, light rain
Temporary
from 05 at 09 UTC to 05 at 12 UTC
Few clouds at a height of 3500 ft, Cumulonimbus.
Overcast at a height of 6000 ft

TAF: VIBR 050500Z 0506/0515 VRB02KT 5000 BR -RA FEW008 SCT030 TEMPO 0509/0512 FEW035CB OVC060

Weather observations and forecasts of more than 4000 airports (METAR and TAF reports).

The available stations are represented by yellow and red dots on the map.

Hover mouse over dot to see the name of the station.

Then click to see weather observations and forecasts.

To change the map : click on the green buttons with a black cross to zoom in, on the green button with a dash to zoom out, or on the green arrows for adjacent maps.


METAR-TAF: